Time;durP1;ratioP1;P1;durP2;ratioP2;P2;SDS_P1;SDS_P2;PMS_P1;PMS_P2;Temp;Humidity;BMP_temperature;BMP_pressure;BME280_temperature;BME280_humidity;BME280_pressure;Samples;Min_cycle;Max_cycle;Signal;HPM_P1;HPM_P2
2022/01/05 00:00:13;;;;;;;54.35;31.67;;;;;;;5.16;64.76;94597.81;5008141;28;20197;-61
2022/01/05 00:02:40;;;;;;;58.35;31.65;;;;;;;5.33;63.94;94586.72;5008987;28;20205;-60
2022/01/05 00:05:08;;;;;;;58.85;32.22;;;;;;;5.45;63.66;94577.06;5009873;28;20200;-61
2022/01/05 00:07:35;;;;;;;53.08;31.00;;;;;;;5.60;63.17;94590.38;5009394;28;20209;-61
2022/01/05 00:10:03;;;;;;;57.08;31.08;;;;;;;5.62;62.70;94585.72;5019231;28;20221;-60
2022/01/05 00:12:30;;;;;;;58.08;31.27;;;;;;;5.65;62.31;94590.44;5012959;28;20201;-61
2022/01/05 00:14:57;;;;;;;51.47;30.35;;;;;;;5.66;62.85;94603.22;5009652;28;20720;-60
2022/01/05 00:17:24;;;;;;;60.08;32.00;;;;;;;5.57;62.84;94586.41;5009469;28;20198;-61
2022/01/05 00:19:51;;;;;;;60.17;31.30;;;;;;;5.62;62.82;94590.94;5009635;28;20202;-59
2022/01/05 00:22:18;;;;;;;49.42;30.75;;;;;;;5.71;62.25;94592.13;5010381;28;20225;-60
2022/01/05 00:24:46;;;;;;;53.20;31.23;;;;;;;5.67;62.45;94593.63;5009842;28;20288;-60
2022/01/05 00:27:13;;;;;;;50.92;31.10;;;;;;;5.43;62.89;94585.09;5006572;28;20208;-60
2022/01/05 00:29:39;;;;;;;57.40;31.30;;;;;;;5.22;63.51;94584.94;5008940;28;20206;-61
2022/01/05 00:32:07;;;;;;;52.35;30.42;;;;;;;5.01;63.34;94594.91;5009016;28;20209;-60
2022/01/05 00:34:36;;;;;;;53.42;32.47;;;;;;;5.16;63.89;94592.63;5008903;28;20202;-61
2022/01/05 00:37:03;;;;;;;53.53;30.85;;;;;;;5.25;63.39;94594.88;5006338;28;20190;-60
2022/01/05 00:39:31;;;;;;;55.83;30.00;;;;;;;4.82;64.66;94580.47;4992590;28;20625;-61
2022/01/05 00:41:58;;;;;;;51.80;30.30;;;;;;;5.15;63.72;94593.66;5009707;28;20300;-61
2022/01/05 00:44:25;;;;;;;54.17;30.63;;;;;;;5.01;64.05;94594.91;5008139;28;20205;-60
2022/01/05 00:46:53;;;;;;;56.20;30.20;;;;;;;5.32;63.76;94590.31;5007747;28;20585;-60
2022/01/05 00:49:20;;;;;;;51.25;30.60;;;;;;;5.10;64.27;94572.78;5007572;28;20772;-61
2022/01/05 00:51:47;;;;;;;51.72;31.40;;;;;;;5.00;64.99;94588.13;5007311;28;20684;-63
2022/01/05 00:54:14;;;;;;;48.72;30.25;;;;;;;5.32;64.12;94575.53;5007549;28;20198;-59
2022/01/05 00:56:41;;;;;;;58.03;30.27;;;;;;;5.43;62.62;94581.72;5006193;28;20194;-61
2022/01/05 00:59:08;;;;;;;54.65;30.23;;;;;;;5.36;63.02;94575.88;5008884;28;20538;-60
2022/01/05 01:01:36;;;;;;;50.63;29.77;;;;;;;5.43;62.82;94581.72;5008782;28;20673;-60
2022/01/05 01:04:05;;;;;;;57.55;30.67;;;;;;;5.06;64.22;94579.44;5008231;28;20201;-61
2022/01/05 01:06:32;;;;;;;50.92;29.50;;;;;;;5.00;63.70;94576.94;5006880;28;20204;-62
2022/01/05 01:08:59;;;;;;;48.83;29.92;;;;;;;5.27;62.81;94566.84;5007086;28;20256;-61
2022/01/05 01:11:26;;;;;;;49.90;28.30;;;;;;;5.24;62.77;94564.72;5008722;28;20256;-60
2022/01/05 01:13:53;;;;;;;50.92;28.98;;;;;;;4.89;63.71;94560.38;5008271;28;20198;-61
2022/01/05 01:16:20;;;;;;;44.25;27.73;;;;;;;5.26;62.63;94567.84;5008563;28;20664;-60
2022/01/05 01:18:47;;;;;;;45.83;26.00;;;;;;;5.12;62.74;94555.16;5008643;28;20333;-61
2022/01/05 01:21:14;;;;;;;45.75;26.70;;;;;;;5.27;62.49;94551.28;5008413;28;20293;-64
2022/01/05 01:23:49;;;;;;;47.03;26.67;;;;;;;5.12;63.08;94581.13;5019835;28;20280;-61
2022/01/05 01:26:15;;;;;;;43.33;25.30;;;;;;;5.08;63.27;94574.81;5010124;28;20201;-61
2022/01/05 01:28:42;;;;;;;41.40;25.48;;;;;;;5.15;63.23;94578.06;5008987;28;20213;-60
2022/01/05 01:31:09;;;;;;;39.42;24.90;;;;;;;5.30;61.83;94545.59;5009304;28;20730;-60
2022/01/05 01:33:37;;;;;;;43.60;24.98;;;;;;;5.58;61.58;94558.63;5008273;28;20688;-60
2022/01/05 01:36:04;;;;;;;40.88;25.40;;;;;;;5.30;62.12;94556.00;5008683;28;20213;-62
2022/01/05 01:38:31;;;;;;;42.00;26.45;;;;;;;5.33;62.15;94561.50;5005453;28;20260;-62
2022/01/05 01:40:58;;;;;;;45.70;25.90;;;;;;;5.39;61.77;94557.22;5008283;28;20201;-61
2022/01/05 01:43:25;;;;;;;43.17;25.42;;;;;;;5.35;61.59;94554.28;5008245;28;20198;-60
2022/01/05 01:45:52;;;;;;;41.67;25.42;;;;;;;5.26;61.51;94549.69;5009196;28;20214;-61
2022/01/05 01:48:19;;;;;;;47.40;26.77;;;;;;;5.21;61.21;94549.59;5008212;28;20236;-61
2022/01/05 01:50:46;;;;;;;41.63;26.25;;;;;;;5.12;61.75;94544.78;5008903;28;20198;-61
2022/01/05 01:53:13;;;;;;;42.00;25.73;;;;;;;5.19;61.65;94549.81;5005179;28;20205;-61
2022/01/05 01:55:40;;;;;;;44.22;27.30;;;;;;;5.29;61.58;94549.22;5010913;28;20352;-61
2022/01/05 01:58:07;;;;;;;47.50;26.08;;;;;;;5.16;61.21;94535.47;5009878;28;20216;-61
2022/01/05 02:00:35;;;;;;;46.22;28.40;;;;;;;5.05;61.52;94544.09;5010262;28;20616;-60
2022/01/05 02:03:02;;;;;;;41.22;25.85;;;;;;;4.72;62.35;94549.13;5011990;28;20602;-60
2022/01/05 02:05:29;;;;;;;39.13;25.25;;;;;;;4.56;63.20;94534.22;5012132;28;20241;-60
2022/01/05 02:07:56;;;;;;;40.70;25.17;;;;;;;4.96;61.98;94542.88;5009016;28;20189;-61
2022/01/05 02:10:23;;;;;;;43.40;24.98;;;;;;;4.92;62.26;94554.75;5012055;28;20212;-61
2022/01/05 02:12:50;;;;;;;45.47;24.60;;;;;;;5.18;61.68;94543.81;5011640;28;20209;-60
2022/01/05 02:15:17;;;;;;;41.42;25.55;;;;;;;4.78;62.62;94537.81;5012108;28;20641;-61
2022/01/05 02:17:55;;;;;;;41.70;24.77;;;;;;;4.56;64.34;94539.41;5012044;28;20264;-61
2022/01/05 02:20:26;;;;;;;42.25;24.95;;;;;;;4.87;63.10;94541.63;5012516;28;20217;-60
2022/01/05 02:22:54;;;;;;;40.10;23.65;;;;;;;5.01;62.46;94532.59;5013160;28;20228;-60
2022/01/05 02:25:22;;;;;;;40.17;24.83;;;;;;;5.10;62.18;94540.81;5023109;28;20296;-62
2022/01/05 02:27:52;;;;;;;38.55;22.95;;;;;;;4.82;62.71;94538.94;5011437;28;20983;-61
2022/01/05 02:30:26;;;;;;;36.00;23.67;;;;;;;4.71;63.09;94528.56;5011980;28;20194;-60
2022/01/05 02:32:53;;;;;;;36.78;23.33;;;;;;;4.78;63.11;94531.88;5011098;28;20267;-60
2022/01/05 02:35:20;;;;;;;40.60;24.77;;;;;;;4.75;62.77;94534.91;5012472;28;20197;-60
2022/01/05 02:37:51;;;;;;;41.92;24.67;;;;;;;4.81;62.19;94527.00;5007470;28;20615;-61
2022/01/05 02:40:20;;;;;;;45.42;27.58;;;;;;;4.62;62.28;94527.34;5011389;28;20186;-61
2022/01/05 02:42:47;;;;;;;48.78;29.75;;;;;;;4.68;62.29;94527.25;5011029;28;20256;-60
2022/01/05 02:45:15;;;;;;;57.78;32.35;;;;;;;4.71;62.32;94526.78;5011133;28;20189;-60
2022/01/05 02:47:42;;;;;;;58.65;34.80;;;;;;;4.69;62.08;94522.84;5010349;28;20287;-59
2022/01/05 02:50:12;;;;;;;50.42;29.50;;;;;;;4.71;62.58;94526.78;5012099;28;20234;-60
2022/01/05 02:52:39;;;;;;;52.00;29.50;;;;;;;4.51;63.28;94521.16;5007231;28;20204;-60
2022/01/05 02:55:08;;;;;;;51.50;29.13;;;;;;;4.71;62.16;94521.59;5011232;28;20677;-60
2022/01/05 02:57:35;;;;;;;53.50;31.73;;;;;;;4.86;61.91;94514.13;5016328;28;20224;-60
2022/01/05 03:00:05;;;;;;;57.70;34.78;;;;;;;4.81;61.37;94505.44;5018878;28;20623;-60
2022/01/05 03:02:32;;;;;;;70.50;39.13;;;;;;;4.81;61.32;94510.63;5010588;28;20573;-61
2022/01/05 03:05:00;;;;;;;99.18;52.13;;;;;;;4.72;61.60;94510.22;5011104;28;20268;-61
2022/01/05 03:07:27;;;;;;;79.32;44.70;;;;;;;4.76;61.33;94519.09;5006905;28;20198;-60
2022/01/05 03:09:54;;;;;;;58.00;35.03;;;;;;;4.73;61.21;94518.75;5010144;28;20296;-60
2022/01/05 03:12:20;;;;;;;54.50;32.05;;;;;;;4.54;60.74;94515.53;5010946;28;20260;-61
2022/01/05 03:14:47;;;;;;;149.75;80.00;;;;;;;3.96;63.27;94517.28;5010368;28;20209;-60
2022/01/05 03:17:14;;;;;;;136.30;72.78;;;;;;;4.22;62.68;94511.69;5010434;28;20230;-61
2022/01/05 03:19:41;;;;;;;133.15;70.07;;;;;;;4.40;62.44;94508.22;5010292;28;20744;-61
2022/01/05 03:22:08;;;;;;;118.65;65.28;;;;;;;4.55;61.52;94517.09;5011057;28;20204;-61
2022/01/05 03:24:35;;;;;;;131.30;63.63;;;;;;;4.56;61.17;94503.09;5010702;28;20237;-61
2022/01/05 03:27:02;;;;;;;121.72;65.70;;;;;;;4.48;61.59;94513.84;5010693;28;20205;-60
2022/01/05 03:29:29;;;;;;;103.68;56.33;;;;;;;4.57;61.09;94515.06;5019330;28;20599;-61
2022/01/05 03:31:56;;;;;;;97.75;53.63;;;;;;;4.50;61.29;94517.00;5017330;28;20198;-60
2022/01/05 03:34:23;;;;;;;113.63;63.53;;;;;;;4.36;60.95;94512.28;5010573;28;20566;-60
2022/01/05 03:36:50;;;;;;;118.68;69.47;;;;;;;4.18;61.16;94515.75;5010407;28;20687;-60
2022/01/05 03:39:17;;;;;;;127.88;73.68;;;;;;;4.08;62.16;94510.34;5006773;28;20352;-61
2022/01/05 03:41:43;;;;;;;125.20;73.32;;;;;;;4.25;61.56;94513.06;5010381;28;20209;-61
2022/01/05 03:44:11;;;;;;;142.10;75.28;;;;;;;4.34;61.35;94496.94;5010041;28;20225;-60
2022/01/05 03:46:38;;;;;;;141.18;80.65;;;;;;;4.35;61.25;94510.66;5010229;28;20319;-60
2022/01/05 03:49:05;;;;;;;118.15;64.68;;;;;;;4.14;61.78;94525.00;5009057;28;20409;-60
2022/01/05 03:51:32;;;;;;;98.05;59.58;;;;;;;4.02;62.62;94511.22;5010972;28;20201;-60
2022/01/05 03:53:58;;;;;;;107.30;63.75;;;;;;;4.17;62.45;94521.94;5010775;28;20272;-60
2022/01/05 03:56:25;;;;;;;98.30;64.78;;;;;;;3.16;65.72;94512.72;5013559;28;20243;-60
2022/01/05 03:58:52;;;;;;;117.65;75.35;;;;;;;3.61;64.91;94519.81;5021142;28;20214;-61
2022/01/05 04:01:19;;;;;;;117.43;78.68;;;;;;;3.65;64.56;94512.41;5010050;28;20198;-60
2022/01/05 04:03:46;;;;;;;116.07;77.40;;;;;;;3.81;64.30;94514.38;5010648;28;20974;-60
2022/01/05 04:06:14;;;;;;;110.80;72.28;;;;;;;4.21;63.25;94509.31;5010332;28;20216;-60
2022/01/05 04:08:41;;;;;;;110.55;69.53;;;;;;;4.28;63.23;94503.03;5007037;28;20222;-60
2022/01/05 04:11:08;;;;;;;110.68;70.57;;;;;;;4.31;63.01;94499.97;5025551;28;20186;-61
2022/01/05 04:13:35;;;;;;;113.38;73.10;;;;;;;4.28;63.07;94500.44;5009095;28;20708;-61
2022/01/05 04:16:02;;;;;;;111.38;69.47;;;;;;;3.76;64.69;94498.69;5010206;28;20198;-60
2022/01/05 04:18:29;;;;;;;108.97;71.93;;;;;;;3.81;64.29;94498.81;5009894;28;20182;-60
2022/01/05 04:20:57;;;;;;;104.38;63.58;;;;;;;3.40;65.98;94491.84;5010152;28;20201;-60
2022/01/05 04:23:24;;;;;;;97.20;60.63;;;;;;;3.61;65.93;94490.56;5010002;28;20307;-61
2022/01/05 04:25:51;;;;;;;97.38;59.92;;;;;;;3.77;65.89;94487.31;5010036;28;20210;-60
2022/01/05 04:28:18;;;;;;;95.82;59.85;;;;;;;4.13;64.34;94476.75;5005859;28;20221;-60
2022/01/05 04:30:45;;;;;;;100.38;63.58;;;;;;;3.99;64.25;94475.41;5009297;28;20208;-60
2022/01/05 04:33:12;;;;;;;99.85;61.10;;;;;;;4.30;63.27;94477.66;5009307;28;20577;-60
2022/01/05 04:35:58;;;;;;;91.03;58.00;;;;;;;4.31;63.02;94484.41;5009241;28;20255;-61
2022/01/05 04:38:26;;;;;;;95.28;58.15;;;;;;;4.28;63.35;94492.66;5009113;28;20252;-60
2022/01/05 04:40:54;;;;;;;86.38;55.08;;;;;;;4.32;63.33;94496.38;5009454;28;20516;-61
2022/01/05 04:43:21;;;;;;;93.22;56.13;;;;;;;4.62;62.54;94504.00;5008150;28;21036;-60
2022/01/05 04:45:49;;;;;;;86.82;53.70;;;;;;;3.92;64.42;94503.22;5007025;28;20224;-62
2022/01/05 04:48:17;;;;;;;78.05;49.15;;;;;;;3.87;65.45;94495.31;5008386;28;20221;-60
2022/01/05 04:50:43;;;;;;;83.43;50.80;;;;;;;4.07;64.21;94483.63;5009038;28;20213;-61
2022/01/05 04:53:13;;;;;;;77.13;46.35;;;;;;;4.17;64.00;94472.69;5007882;28;20201;-61
2022/01/05 04:55:40;;;;;;;64.97;36.17;;;;;;;4.59;64.14;94497.47;5006968;28;20260;-61
2022/01/05 04:58:08;;;;;;;74.78;44.95;;;;;;;4.63;64.16;94485.63;5008640;28;20233;-61
2022/01/05 05:00:35;;;;;;;77.00;46.25;;;;;;;3.82;65.80;94490.81;5008757;28;20214;-61
2022/01/05 05:03:03;;;;;;;78.65;47.28;;;;;;;4.06;65.63;94509.78;5008872;28;20282;-61
2022/01/05 05:05:31;;;;;;;80.35;46.65;;;;;;;3.83;65.08;94453.50;5009181;28;20197;-61
2022/01/05 05:07:58;;;;;;;86.40;50.45;;;;;;;4.21;64.40;94504.94;5008606;28;20197;-60
2022/01/05 05:10:25;;;;;;;85.22;51.00;;;;;;;4.06;63.51;94481.25;5009378;28;20240;-61
2022/01/05 05:12:52;;;;;;;84.25;52.35;;;;;;;4.29;62.55;94517.56;5009148;28;20293;-60
2022/01/05 05:15:19;;;;;;;106.35;63.03;;;;;;;3.91;65.25;94515.38;5009112;28;20217;-61
2022/01/05 05:17:45;;;;;;;88.13;56.10;;;;;;;3.83;65.16;94531.25;5009112;28;20190;-61
2022/01/05 05:20:12;;;;;;;90.05;54.28;;;;;;;3.77;65.07;94528.78;5015114;28;20197;-59
2022/01/05 05:22:39;;;;;;;90.07;55.83;;;;;;;4.00;64.93;94519.22;5028699;28;20197;-61
2022/01/05 05:25:07;;;;;;;92.82;54.42;;;;;;;3.92;64.35;94531.75;5028313;28;20191;-61
2022/01/05 05:27:33;;;;;;;93.30;58.72;;;;;;;3.75;65.03;94543.75;5028101;28;20186;-58
2022/01/05 05:30:01;;;;;;;85.43;54.80;;;;;;;3.94;64.64;94540.84;5030173;28;20209;-61
2022/01/05 05:32:27;;;;;;;87.25;51.42;;;;;;;3.86;65.32;94543.78;5031899;28;20274;-61
2022/01/05 05:34:54;;;;;;;75.82;48.53;;;;;;;4.13;64.39;94544.16;5032362;28;20630;-61
2022/01/05 05:37:22;;;;;;;69.47;40.85;;;;;;;3.82;65.44;94547.03;5032934;28;20185;-61
2022/01/05 05:39:49;;;;;;;67.15;40.53;;;;;;;3.96;65.86;94558.75;5032091;28;20208;-61
2022/01/05 05:42:16;;;;;;;49.85;31.65;;;;;;;3.98;65.96;94546.38;5032870;28;20691;-62
2022/01/05 05:44:43;;;;;;;70.10;42.00;;;;;;;4.20;66.11;94547.44;5030898;28;20610;-62
2022/01/05 05:47:10;;;;;;;74.70;46.20;;;;;;;4.06;65.43;94544.28;5032677;28;20208;-62
2022/01/05 05:49:37;;;;;;;72.00;45.35;;;;;;;4.17;65.42;94547.88;5031740;28;20217;-61
2022/01/05 05:52:04;;;;;;;72.32;43.13;;;;;;;4.07;64.66;94545.84;5032060;28;20525;-62
2022/01/05 05:54:31;;;;;;;71.15;42.03;;;;;;;4.03;65.07;94542.09;5032108;28;20201;-61
2022/01/05 05:56:59;;;;;;;160.77;99.88;;;;;;;4.10;64.60;94544.63;5032401;28;20200;-61
2022/01/05 05:59:25;;;;;;;111.63;67.22;;;;;;;4.06;64.51;94548.66;5031600;28;20178;-61
2022/01/05 06:01:52;;;;;;;134.13;86.22;;;;;;;4.11;64.23;94546.19;5032226;28;20365;-61
2022/01/05 06:04:20;;;;;;;73.95;45.83;;;;;;;4.13;63.77;94554.53;5031964;28;20205;-61
2022/01/05 06:06:47;;;;;;;75.43;44.38;;;;;;;4.18;63.62;94552.03;5032367;28;20567;-61
2022/01/05 06:09:14;;;;;;;80.55;46.03;;;;;;;4.16;63.25;94548.13;5031827;28;20286;-60
2022/01/05 06:11:42;;;;;;;84.03;47.58;;;;;;;4.18;62.96;94535.72;5032522;28;20227;-61
2022/01/05 06:14:09;;;;;;;83.93;49.35;;;;;;;4.05;62.82;94545.25;5032039;28;20204;-61
2022/01/05 06:16:36;;;;;;;102.47;59.00;;;;;;;4.00;63.44;94539.16;5032277;28;20189;-60
2022/01/05 06:19:03;;;;;;;104.85;61.22;;;;;;;4.15;62.78;94547.31;5031484;28;20209;-62
2022/01/05 06:21:30;;;;;;;101.60;59.55;;;;;;;4.09;62.95;94548.19;5032255;28;20653;-65
2022/01/05 06:23:57;;;;;;;116.10;70.95;;;;;;;4.25;62.63;94557.94;5031886;28;20208;-61
2022/01/05 06:26:23;;;;;;;132.43;80.20;;;;;;;4.12;63.66;94568.50;5032534;28;20861;-62
2022/01/05 06:28:50;;;;;;;102.85;59.53;;;;;;;4.06;63.53;94556.44;5011027;28;20201;-61
2022/01/05 06:31:17;;;;;;;100.72;57.65;;;;;;;4.05;63.71;94563.41;5012266;28;20776;-60
2022/01/05 06:33:44;;;;;;;109.93;64.97;;;;;;;4.07;63.46;94576.16;5011316;28;20205;-61
2022/01/05 06:36:11;;;;;;;137.57;69.10;;;;;;;4.23;63.61;94574.72;5010357;28;20206;-62
2022/01/05 06:38:38;;;;;;;121.47;69.28;;;;;;;4.07;64.22;94576.16;5009728;28;20943;-60
2022/01/05 06:41:05;;;;;;;112.03;65.32;;;;;;;4.27;63.59;94561.06;5010486;28;20673;-62
2022/01/05 06:43:32;;;;;;;117.93;65.63;;;;;;;4.41;63.21;94552.06;5010592;28;20209;-61
2022/01/05 06:45:59;;;;;;;112.55;66.13;;;;;;;4.60;63.08;94556.13;5011231;28;20260;-61
2022/01/05 06:48:26;;;;;;;111.45;62.58;;;;;;;4.12;64.83;94563.31;5010784;28;20377;-61
2022/01/05 06:50:53;;;;;;;114.15;61.38;;;;;;;4.55;63.35;94574.19;5011613;28;20225;-61
2022/01/05 06:53:20;;;;;;;107.13;62.65;;;;;;;4.45;63.43;94561.00;5011981;28;20710;-61
2022/01/05 06:55:47;;;;;;;105.13;59.13;;;;;;;4.10;64.38;94545.41;5011685;28;20189;-61
2022/01/05 06:58:13;;;;;;;103.75;60.63;;;;;;;4.03;66.48;94569.84;5010684;28;20642;-60
2022/01/05 07:00:40;;;;;;;93.22;56.53;;;;;;;4.55;64.53;94558.59;5011317;28;20212;-60
2022/01/05 07:03:07;;;;;;;101.53;59.78;;;;;;;4.53;63.97;94559.84;5011104;28;20201;-61
2022/01/05 07:05:34;;;;;;;98.75;57.70;;;;;;;4.75;63.75;94559.06;5010985;28;20654;-60
2022/01/05 07:08:01;;;;;;;90.47;56.38;;;;;;;5.14;62.80;94558.31;5010998;28;20197;-60
2022/01/05 07:10:28;;;;;;;97.07;55.63;;;;;;;5.36;61.97;94560.28;5011556;28;20272;-61
2022/01/05 07:12:55;;;;;;;83.45;54.40;;;;;;;5.80;63.55;94562.91;5011359;28;20182;-62
2022/01/05 07:15:22;;;;;;;109.40;67.72;;;;;;;5.73;63.12;94566.69;5011598;28;20272;-61
2022/01/05 07:17:49;;;;;;;122.25;77.88;;;;;;;5.84;62.00;94558.84;5010948;28;20263;-61
2022/01/05 07:20:16;;;;;;;135.07;80.80;;;;;;;5.68;62.61;94563.97;5011118;28;20220;-59
2022/01/05 07:22:44;;;;;;;124.57;82.60;;;;;;;5.74;62.11;94550.06;5010943;28;20198;-61
2022/01/05 07:25:11;;;;;;;130.63;83.32;;;;;;;6.02;61.14;94565.69;5011176;28;20423;-61
2022/01/05 07:27:38;;;;;;;130.82;77.30;;;;;;;5.91;61.60;94569.13;5009881;28;20256;-61
2022/01/05 07:30:06;;;;;;;116.20;71.10;;;;;;;5.85;61.97;94575.25;5010091;28;20214;-60
2022/01/05 07:32:33;;;;;;;96.13;61.28;;;;;;;5.87;61.82;94570.59;5010631;28;20201;-61
2022/01/05 07:35:00;;;;;;;92.13;54.65;;;;;;;6.05;61.24;94560.00;5010676;28;20756;-61
2022/01/05 07:37:27;;;;;;;93.90;52.92;;;;;;;6.23;60.67;94566.78;5010317;28;20201;-61
2022/01/05 07:39:54;;;;;;;68.25;42.10;;;;;;;6.37;59.92;94568.81;5010256;28;20303;-61
2022/01/05 07:42:21;;;;;;;55.47;33.22;;;;;;;6.16;60.82;94561.75;5010507;28;20591;-61
2022/01/05 07:44:48;;;;;;;42.65;28.20;;;;;;;6.15;60.71;94580.94;5010450;28;20197;-60
2022/01/05 07:47:14;;;;;;;40.75;24.30;;;;;;;6.25;60.10;94564.72;5010506;28;20202;-60
2022/01/05 07:49:41;;;;;;;36.17;22.77;;;;;;;6.43;60.70;94570.50;5010195;28;20226;-60
2022/01/05 07:52:08;;;;;;;32.92;21.90;;;;;;;6.63;59.82;94576.00;5010062;28;20273;-60
2022/01/05 07:54:36;;;;;;;38.65;22.90;;;;;;;6.90;59.51;94565.69;5010044;28;20284;-60
2022/01/05 07:57:04;;;;;;;33.47;22.02;;;;;;;6.87;59.21;94564.38;5010893;28;20213;-60
2022/01/05 07:59:31;;;;;;;35.30;21.15;;;;;;;7.02;58.52;94569.00;5009977;28;20221;-61
2022/01/05 08:01:58;;;;;;;36.13;21.95;;;;;;;7.33;58.38;94557.13;5010957;28;20582;-61
2022/01/05 08:04:25;;;;;;;34.33;21.90;;;;;;;7.48;57.88;94559.91;5010363;28;20695;-61
2022/01/05 08:06:52;;;;;;;35.30;20.55;;;;;;;7.68;57.65;94562.72;5010413;28;20452;-60
2022/01/05 08:09:19;;;;;;;31.63;19.75;;;;;;;7.43;57.70;94562.44;5009334;28;20300;-61
2022/01/05 08:11:46;;;;;;;37.30;22.93;;;;;;;7.28;57.84;94580.53;5010427;28;20273;-60
2022/01/05 08:14:13;;;;;;;34.90;22.80;;;;;;;7.60;57.32;94574.38;5010107;28;20543;-60
2022/01/05 08:16:42;;;;;;;29.50;19.67;;;;;;;7.91;56.59;94573.66;5010400;28;20445;-60
2022/01/05 08:19:09;;;;;;;30.97;19.83;;;;;;;8.26;55.99;94565.41;5012310;28;20241;-60
2022/01/05 08:21:35;;;;;;;32.20;20.33;;;;;;;8.32;56.08;94567.00;5012744;28;20429;-60
2022/01/05 08:24:03;;;;;;;34.67;19.60;;;;;;;8.65;54.45;94551.06;5010132;28;20455;-64
2022/01/05 08:26:29;;;;;;;29.13;18.07;;;;;;;8.75;53.92;94556.38;5010121;28;20449;-61
2022/01/05 08:28:57;;;;;;;30.80;19.37;;;;;;;8.73;54.04;94548.00;5009735;28;20445;-60
2022/01/05 08:31:23;;;;;;;29.07;17.53;;;;;;;8.91;53.62;94534.50;5009886;28;21038;-61
2022/01/05 08:33:50;;;;;;;23.83;15.70;;;;;;;8.80;52.59;94559.00;5009918;28;20523;-61
2022/01/05 08:36:17;;;;;;;26.00;16.10;;;;;;;9.02;53.58;94554.44;5009826;28;20475;-60
2022/01/05 08:38:44;;;;;;;30.20;16.30;;;;;;;9.17;53.59;94549.28;5009578;28;20445;-60
2022/01/05 08:41:11;;;;;;;23.60;16.50;;;;;;;9.33;53.20;94546.72;5010178;28;20851;-61
2022/01/05 08:43:38;;;;;;;27.63;16.87;;;;;;;9.62;52.79;94551.28;5009237;28;20448;-59
2022/01/05 08:46:05;;;;;;;25.17;16.10;;;;;;;10.00;51.57;94542.19;5009659;28;20441;-61
2022/01/05 08:48:32;;;;;;;25.70;15.97;;;;;;;10.22;50.74;94550.63;5009491;28;20928;-61
2022/01/05 08:50:59;;;;;;;23.50;14.70;;;;;;;10.86;49.46;94546.41;5009841;28;20492;-61
2022/01/05 08:53:26;;;;;;;28.43;15.07;;;;;;;10.37;48.92;94537.53;5009273;28;20461;-61
2022/01/05 08:55:53;;;;;;;24.63;16.20;;;;;;;11.51;47.76;94537.56;5009845;28;20436;-61
2022/01/05 08:58:21;;;;;;;23.50;15.23;;;;;;;11.85;46.93;94540.28;5008768;28;21039;-61
2022/01/05 09:00:48;;;;;;;22.67;15.10;;;;;;;11.76;47.52;94539.28;5009606;28;20437;-61
2022/01/05 09:03:16;;;;;;;23.30;15.97;;;;;;;12.08;46.63;94527.28;5008984;28;20456;-60
2022/01/05 09:05:45;;;;;;;29.93;17.53;;;;;;;12.57;45.91;94529.78;5008946;28;20849;-60
2022/01/05 09:08:12;;;;;;;29.50;18.00;;;;;;;12.35;45.49;94526.84;5008999;28;20440;-59
2022/01/05 09:10:39;;;;;;;27.87;16.53;;;;;;;12.41;44.89;94520.47;5009453;28;20484;-61
2022/01/05 09:13:09;;;;;;;22.63;15.43;;;;;;;12.46;45.80;94523.06;5008965;28;20898;-60
2022/01/05 09:15:37;;;;;;;33.40;16.57;;;;;;;12.62;44.64;94511.38;5009374;28;20455;-61
2022/01/05 09:18:04;;;;;;;25.93;17.03;;;;;;;12.95;44.89;94510.53;5009359;28;20505;-60
2022/01/05 09:20:32;;;;;;;23.00;15.23;;;;;;;13.01;43.77;94516.53;5007779;28;20449;-61
2022/01/05 09:23:00;;;;;;;22.47;15.20;;;;;;;13.09;43.07;94514.09;5008783;28;20480;-61
2022/01/05 09:25:27;;;;;;;17.50;12.80;;;;;;;13.23;43.26;94505.53;5009314;28;20451;-60
2022/01/05 09:27:54;;;;;;;20.60;14.07;;;;;;;13.58;43.03;94500.59;5009108;28;20898;-61
2022/01/05 09:30:22;;;;;;;26.13;16.57;;;;;;;13.50;42.84;94493.34;5008973;28;20921;-61
2022/01/05 09:32:50;;;;;;;22.60;14.50;;;;;;;13.65;41.97;94487.88;5008790;28;20437;-61
2022/01/05 09:35:20;;;;;;;20.40;13.70;;;;;;;14.08;41.70;94472.78;5009141;28;20448;-61
2022/01/05 09:38:09;;;;;;;25.23;14.77;;;;;;;14.03;41.92;94483.41;5008773;28;20460;-61
2022/01/05 09:43:24;;;;;;;19.53;15.07;;;;;;;13.97;41.53;94468.72;5008328;28;20443;-61
2022/01/05 09:46:07;;;;;;;21.23;13.77;;;;;;;14.55;40.80;94469.13;5008709;28;20479;-61
2022/01/05 09:48:38;;;;;;;21.83;13.70;;;;;;;14.40;40.96;94462.28;5007951;28;20642;-60
2022/01/05 09:51:10;;;;;;;19.10;13.20;;;;;;;14.67;40.00;94457.06;5008883;28;20476;-60
2022/01/05 09:53:40;;;;;;;22.30;14.10;;;;;;;14.50;40.67;94441.03;5008605;28;20459;-60
2022/01/05 09:56:29;;;;;;;23.47;14.00;;;;;;;13.91;40.55;94448.78;5009163;28;20456;-61
2022/01/05 09:59:00;;;;;;;23.87;14.40;;;;;;;14.31;41.07;94452.66;5007704;28;20444;-61
2022/01/05 10:01:32;;;;;;;27.37;15.53;;;;;;;14.48;40.68;94442.38;5008992;28;20858;-60
2022/01/05 10:04:00;;;;;;;21.80;14.77;;;;;;;14.25;40.15;94433.50;5008627;28;20806;-60
2022/01/05 10:06:34;;;;;;;23.50;15.83;;;;;;;14.63;40.92;94435.00;4992368;28;20456;-60
2022/01/05 10:09:02;;;;;;;26.43;16.27;;;;;;;14.62;39.58;94438.69;5007938;28;20437;-61
2022/01/05 10:11:29;;;;;;;22.67;15.33;;;;;;;14.48;39.50;94432.63;5004559;28;20484;-60
2022/01/05 10:13:56;;;;;;;21.60;15.17;;;;;;;13.94;40.71;94427.94;5017435;28;20499;-60
2022/01/05 10:16:24;;;;;;;31.27;16.27;;;;;;;14.14;40.95;94422.34;5012671;28;20440;-61
2022/01/05 10:18:51;;;;;;;26.07;17.30;;;;;;;14.08;41.59;94422.72;5013475;28;21307;-60
2022/01/05 10:21:18;;;;;;;28.93;16.17;;;;;;;14.50;41.16;94419.94;5012138;28;20440;-60
2022/01/05 10:23:46;;;;;;;32.63;16.43;;;;;;;14.30;40.63;94414.22;5013077;28;20536;-59
2022/01/05 10:26:32;;;;;;;24.33;15.03;;;;;;;14.50;41.20;94412.03;5013828;28;20448;-60
2022/01/05 10:29:01;;;;;;;20.20;14.50;;;;;;;14.12;41.08;94410.53;5012333;28;20440;-60
2022/01/05 10:31:31;;;;;;;24.37;13.23;;;;;;;13.92;40.31;94403.72;5020244;28;20484;-61
2022/01/05 10:33:58;;;;;;;24.50;13.13;;;;;;;13.89;40.96;94398.25;5010413;28;20890;-63
2022/01/05 10:36:47;;;;;;;16.40;11.93;;;;;;;14.48;40.21;94395.72;5018278;28;20527;-62
2022/01/05 10:39:15;;;;;;;23.13;15.50;;;;;;;14.32;40.33;94391.78;5009934;28;20448;-60
2022/01/05 10:41:44;;;;;;;40.07;27.70;;;;;;;14.45;40.99;94383.09;5010873;28;20472;-61
2022/01/05 10:44:14;;;;;;;19.30;12.00;;;;;;;14.54;40.95;94384.00;5010620;28;20444;-60
2022/01/05 10:46:48;;;;;;;19.83;11.93;;;;;;;14.79;39.93;94375.63;5012252;28;20536;-60
2022/01/05 10:49:31;;;;;;;20.03;12.77;;;;;;;14.11;40.00;94375.50;5011529;28;20465;-60
2022/01/05 10:52:22;;;;;;;20.47;12.27;;;;;;;14.14;40.54;94374.16;5010756;28;20487;-60
2022/01/05 10:54:50;;;;;;;19.40;13.40;;;;;;;14.22;41.32;94362.94;5007509;28;20448;-60
2022/01/05 10:57:18;;;;;;;22.67;12.63;;;;;;;14.60;40.89;94367.00;5010620;28;20448;-61
2022/01/05 10:59:48;;;;;;;25.63;12.70;;;;;;;14.39;40.76;94370.31;5012228;28;20995;-62
2022/01/05 11:02:24;;;;;;;18.93;13.00;;;;;;;14.32;41.01;94370.72;5010863;28;20436;-60
2022/01/05 11:04:55;;;;;;;19.30;13.63;;;;;;;14.31;41.42;94368.34;5014016;28;20963;-61
2022/01/05 11:07:24;;;;;;;24.00;14.43;;;;;;;14.18;41.18;94364.56;5016776;28;20515;-60
2022/01/05 11:09:54;;;;;;;21.93;13.60;;;;;;;14.45;41.26;94348.84;5010992;28;20998;-62
2022/01/05 11:12:42;;;;;;;21.60;12.93;;;;;;;14.59;41.76;94346.22;5011517;28;20489;-60
2022/01/05 11:15:21;;;;;;;23.27;14.27;;;;;;;14.27;40.84;94347.06;5012317;28;20432;-60
2022/01/05 11:18:11;;;;;;;23.93;15.27;;;;;;;14.51;41.46;94342.41;5015063;28;21100;-60
2022/01/05 11:20:42;;;;;;;20.63;13.80;;;;;;;14.32;40.65;94343.56;5019679;28;20449;-60
2022/01/05 11:23:10;;;;;;;26.40;14.57;;;;;;;14.48;41.68;94336.94;5017970;28;20436;-61
2022/01/05 11:25:38;;;;;;;25.53;15.17;;;;;;;14.64;41.23;94335.56;5018322;28;20445;-61
2022/01/05 11:28:07;;;;;;;27.43;14.90;;;;;;;14.66;41.65;94323.66;5011077;28;20441;-62